createdAt,value
2018-02-13T00:00:24.971Z,99.77
2018-02-13T00:02:52.524Z,99.53
2018-02-13T00:05:20.084Z,99.56
2018-02-13T00:07:47.703Z,99.69
2018-02-13T00:10:15.244Z,99.69
2018-02-13T00:12:42.763Z,99.50
2018-02-13T00:15:10.307Z,99.68
2018-02-13T00:17:37.857Z,99.70
2018-02-13T00:20:05.448Z,100.00
2018-02-13T00:22:44.810Z,99.73
2018-02-13T00:25:12.364Z,99.58
2018-02-13T00:27:39.922Z,99.42
2018-02-13T00:30:07.467Z,99.50
2018-02-13T00:32:35.013Z,99.74
2018-02-13T00:35:02.564Z,99.57
2018-02-13T00:37:30.121Z,99.49
2018-02-13T00:39:57.801Z,99.48
2018-02-13T00:42:25.380Z,99.44
2018-02-13T00:44:52.934Z,99.50
2018-02-13T00:47:20.477Z,99.46
2018-02-13T00:49:47.995Z,99.31
2018-02-13T00:52:15.655Z,99.31
2018-02-13T00:54:43.180Z,99.35
2018-02-13T00:57:11.266Z,98.83
2018-02-13T00:59:38.888Z,99.01
2018-02-13T01:02:06.414Z,98.76
2018-02-13T01:04:34.053Z,99.04
2018-02-13T01:07:01.579Z,98.59
2018-02-13T01:09:29.148Z,98.64
2018-02-13T01:11:56.751Z,98.26
2018-02-13T01:14:24.330Z,97.99
2018-02-13T01:16:51.852Z,98.01
2018-02-13T01:19:19.380Z,98.40
2018-02-13T01:21:47.286Z,98.26
2018-02-13T01:24:14.842Z,98.09
2018-02-13T01:26:42.398Z,97.74
2018-02-13T01:29:10.263Z,98.01
2018-02-13T01:31:37.803Z,98.21
2018-02-13T01:34:05.375Z,98.48
2018-02-13T01:36:32.950Z,98.32
2018-02-13T01:39:00.509Z,97.90
2018-02-13T01:41:28.052Z,98.54
2018-02-13T01:43:55.608Z,98.29
2018-02-13T01:46:23.164Z,98.64
2018-02-13T01:48:50.776Z,98.38
2018-02-13T01:51:18.297Z,98.25
2018-02-13T01:53:45.829Z,98.28
2018-02-13T01:56:13.386Z,98.54
2018-02-13T01:58:40.900Z,98.67
2018-02-13T02:01:08.502Z,97.98
2018-02-13T02:03:36.043Z,97.78
2018-02-13T02:06:03.564Z,97.97
2018-02-13T02:08:31.128Z,98.18
2018-02-13T02:10:58.684Z,98.18
2018-02-13T02:13:26.231Z,98.07
2018-02-13T02:15:53.813Z,97.51
2018-02-13T02:18:21.349Z,97.59
2018-02-13T02:20:48.968Z,97.43
2018-02-13T02:23:16.504Z,97.35
2018-02-13T02:25:44.153Z,98.17
2018-02-13T02:28:11.741Z,98.19
2018-02-13T02:30:39.311Z,97.18
2018-02-13T02:33:06.842Z,97.18
2018-02-13T02:35:34.400Z,97.27
2018-02-13T02:38:02.011Z,97.13
2018-02-13T02:40:29.574Z,97.66
2018-02-13T02:43:06.188Z,98.14
2018-02-13T02:45:33.755Z,97.52
2018-02-13T02:48:01.277Z,97.69
2018-02-13T02:50:28.848Z,97.57
2018-02-13T02:52:56.397Z,97.01
2018-02-13T02:55:23.993Z,97.25
2018-02-13T02:57:51.645Z,97.55
2018-02-13T03:00:19.208Z,97.34
2018-02-13T03:02:46.726Z,97.52
2018-02-13T03:05:14.280Z,97.67
2018-02-13T03:07:41.816Z,97.44
2018-02-13T03:10:09.411Z,97.26
2018-02-13T03:12:36.927Z,97.59
2018-02-13T03:15:04.465Z,97.54
2018-02-13T03:17:32.457Z,97.46
2018-02-13T03:20:00.063Z,97.65
2018-02-13T03:22:27.601Z,96.91
2018-02-13T03:24:55.153Z,97.19
2018-02-13T03:27:22.694Z,97.56
2018-02-13T03:29:50.257Z,97.86
2018-02-13T03:32:17.776Z,98.13
2018-02-13T03:34:45.344Z,97.97
2018-02-13T03:37:12.951Z,97.70
2018-02-13T03:39:40.464Z,97.72
2018-02-13T03:42:08.031Z,97.06
2018-02-13T03:44:35.556Z,97.51
2018-02-13T03:47:03.541Z,97.89
2018-02-13T03:49:31.059Z,97.71
2018-02-13T03:51:58.611Z,98.46
2018-02-13T03:54:26.177Z,98.26
2018-02-13T03:56:53.696Z,97.81
2018-02-13T03:59:21.264Z,97.81
2018-02-13T04:01:48.926Z,98.05
2018-02-13T04:04:16.479Z,98.06
2018-02-13T04:06:44.058Z,98.00
2018-02-13T04:09:11.598Z,98.23
2018-02-13T04:11:39.190Z,98.13
2018-02-13T04:14:06.719Z,98.21
2018-02-13T04:16:34.237Z,98.60
2018-02-13T04:19:03.738Z,97.91
2018-02-13T04:21:31.255Z,97.98
2018-02-13T04:23:58.775Z,97.85
2018-02-13T04:26:26.373Z,98.21
2018-02-13T04:28:53.896Z,98.02
2018-02-13T04:31:21.477Z,97.65
2018-02-13T04:33:49.048Z,97.95
2018-02-13T04:36:16.588Z,98.39
2018-02-13T04:38:44.135Z,98.62
2018-02-13T04:41:11.679Z,98.73
2018-02-13T04:43:39.651Z,98.92
2018-02-13T04:46:07.230Z,99.07
2018-02-13T04:48:34.751Z,98.88
2018-02-13T04:51:02.322Z,98.76
2018-02-13T04:53:30.229Z,98.73
2018-02-13T04:55:57.748Z,99.09
2018-02-13T04:58:25.300Z,99.11
2018-02-13T05:00:52.890Z,98.97
2018-02-13T05:03:20.434Z,98.65
2018-02-13T05:05:48.025Z,98.69
2018-02-13T05:08:15.574Z,98.65
2018-02-13T05:10:43.169Z,98.61
2018-02-13T05:13:10.734Z,98.94
2018-02-13T05:15:38.721Z,99.22
2018-02-13T05:18:06.264Z,99.27
2018-02-13T05:20:34.595Z,98.93
2018-02-13T05:23:02.147Z,98.90
2018-02-13T05:25:29.751Z,98.88
2018-02-13T05:27:57.316Z,98.78
2018-02-13T05:30:24.861Z,98.89
2018-02-13T05:32:52.442Z,98.97
2018-02-13T05:35:20.009Z,99.10
2018-02-13T05:37:47.980Z,98.80
2018-02-13T05:40:15.563Z,98.97
2018-02-13T05:42:43.275Z,99.29
2018-02-13T05:45:10.809Z,99.45
2018-02-13T05:47:38.388Z,99.47
2018-02-13T05:50:05.926Z,99.64
2018-02-13T05:52:33.470Z,99.24
2018-02-13T05:55:01.040Z,99.30
2018-02-13T05:57:28.567Z,99.37
2018-02-13T05:59:56.129Z,99.24
2018-02-13T06:02:23.675Z,98.99
2018-02-13T06:04:51.229Z,99.15
2018-02-13T06:07:18.770Z,98.99
2018-02-13T06:09:46.313Z,99.04
2018-02-13T06:12:13.875Z,99.34
2018-02-13T06:14:41.471Z,99.23
2018-02-13T06:17:08.996Z,99.16
2018-02-13T06:19:36.607Z,99.30
2018-02-13T06:22:04.176Z,99.38
2018-02-13T06:24:31.725Z,99.47
2018-02-13T06:26:59.273Z,99.51
2018-02-13T06:29:27.020Z,99.37
2018-02-13T06:31:54.543Z,99.37
2018-02-13T06:34:22.086Z,99.69
2018-02-13T06:36:50.055Z,99.96
2018-02-13T06:39:17.582Z,99.98
2018-02-13T06:41:45.121Z,99.94
2018-02-13T06:44:12.704Z,100.00
2018-02-13T06:46:40.227Z,100.00
2018-02-13T06:49:07.771Z,99.55
2018-02-13T06:51:35.344Z,99.45
2018-02-13T06:54:02.902Z,99.23
2018-02-13T06:56:30.467Z,99.45
2018-02-13T06:58:57.996Z,99.74
2018-02-13T07:01:25.635Z,99.61
2018-02-13T07:03:53.191Z,99.61
2018-02-13T07:06:20.756Z,99.65
2018-02-13T07:08:48.308Z,99.10
2018-02-13T07:11:15.884Z,98.84
2018-02-13T07:13:43.457Z,98.90
2018-02-13T07:16:10.975Z,99.14
2018-02-13T07:18:38.586Z,98.70
2018-02-13T07:21:06.145Z,98.67
2018-02-13T07:23:33.697Z,98.62
2018-02-13T07:26:01.286Z,98.45
2018-02-13T07:28:28.829Z,98.35
2018-02-13T07:30:56.409Z,98.52
2018-02-13T07:33:23.947Z,98.42
2018-02-13T07:35:51.528Z,98.63
2018-02-13T07:38:19.087Z,98.93
2018-02-13T07:40:46.649Z,98.61
2018-02-13T07:43:14.204Z,98.25
2018-02-13T07:45:41.813Z,98.15
2018-02-13T07:48:09.385Z,97.90
2018-02-13T07:50:36.941Z,97.58
2018-02-13T07:53:04.920Z,97.85
2018-02-13T07:55:32.434Z,97.41
2018-02-13T07:57:59.954Z,96.59
2018-02-13T08:00:27.557Z,96.47
2018-02-13T08:02:55.087Z,96.16
2018-02-13T08:05:22.645Z,95.85
2018-02-13T08:07:50.164Z,95.45
2018-02-13T08:10:17.727Z,95.10
2018-02-13T08:12:45.642Z,95.32
2018-02-13T08:15:13.183Z,95.22
2018-02-13T08:17:40.703Z,94.64
2018-02-13T08:20:08.267Z,94.66
2018-02-13T08:22:35.836Z,94.08
2018-02-13T08:25:03.408Z,94.11
2018-02-13T08:27:30.956Z,93.89
2018-02-13T08:29:58.487Z,93.63
2018-02-13T08:32:26.376Z,93.42
2018-02-13T08:34:53.907Z,92.75
2018-02-13T08:37:21.443Z,92.53
2018-02-13T08:39:49.028Z,92.57
2018-02-13T08:42:16.582Z,92.12
2018-02-13T08:44:44.175Z,91.76
2018-02-13T08:47:11.699Z,91.56
2018-02-13T08:49:39.233Z,91.28
2018-02-13T08:52:06.831Z,91.39
2018-02-13T08:54:34.347Z,90.83
2018-02-13T08:57:01.960Z,90.15
2018-02-13T08:59:29.488Z,90.27
2018-02-13T09:01:57.054Z,90.23
2018-02-13T09:04:24.619Z,89.88
2018-02-13T09:06:52.178Z,89.63
2018-02-13T09:09:19.746Z,89.28
2018-02-13T09:11:47.256Z,89.10
2018-02-13T09:14:14.831Z,89.07
2018-02-13T09:16:43.176Z,88.84
2018-02-13T09:19:10.724Z,87.89
2018-02-13T09:21:38.277Z,87.94
2018-02-13T09:24:05.815Z,87.71
2018-02-13T09:26:33.703Z,87.28
2018-02-13T09:29:02.140Z,87.19
2018-02-13T09:31:29.666Z,86.84
2018-02-13T09:33:58.151Z,86.66
2018-02-13T09:36:25.689Z,86.30
2018-02-13T09:38:53.452Z,86.47
2018-02-13T09:41:20.987Z,86.08
2018-02-13T09:43:48.525Z,85.96
2018-02-13T09:46:16.119Z,85.87
2018-02-13T09:48:43.674Z,85.70
2018-02-13T09:51:11.219Z,85.68
2018-02-13T09:53:38.822Z,85.59
2018-02-13T09:56:06.347Z,84.96
2018-02-13T09:58:33.880Z,85.23
2018-02-13T10:01:01.480Z,84.47
2018-02-13T10:03:29.102Z,84.36
2018-02-13T10:05:56.611Z,84.43
2018-02-13T10:08:24.626Z,84.21
2018-02-13T10:10:52.176Z,83.82
2018-02-13T10:13:19.731Z,83.64
2018-02-13T10:15:47.354Z,83.68
2018-02-13T10:18:14.882Z,83.26
2018-02-13T10:20:42.425Z,82.92
2018-02-13T10:23:10.067Z,82.98
2018-02-13T10:25:37.641Z,82.71
2018-02-13T10:28:05.192Z,82.19
2018-02-13T10:30:32.733Z,81.70
2018-02-13T10:33:00.335Z,81.49
2018-02-13T10:35:28.429Z,80.53
2018-02-13T10:37:55.967Z,81.33
2018-02-13T10:40:23.527Z,80.57
2018-02-13T10:42:51.060Z,80.90
2018-02-13T10:45:18.600Z,80.61
2018-02-13T10:47:46.159Z,80.64
2018-02-13T10:50:13.757Z,80.30
2018-02-13T10:52:41.310Z,79.90
2018-02-13T10:55:08.861Z,80.58
2018-02-13T10:57:36.423Z,80.06
2018-02-13T11:00:03.993Z,80.04
2018-02-13T11:02:31.529Z,79.60
2018-02-13T11:04:59.084Z,79.69
2018-02-13T11:07:26.611Z,79.08
2018-02-13T11:09:54.148Z,78.88
2018-02-13T11:12:21.664Z,78.83
2018-02-13T11:14:49.242Z,78.63
2018-02-13T11:17:16.827Z,78.26
2018-02-13T11:19:44.372Z,77.45
2018-02-13T11:22:11.962Z,77.82
2018-02-13T11:24:39.481Z,77.39
2018-02-13T11:27:07.002Z,77.80
2018-02-13T11:29:34.586Z,78.05
2018-02-13T11:32:02.131Z,77.32
2018-02-13T11:34:29.695Z,77.35
2018-02-13T11:36:57.264Z,77.84
2018-02-13T11:39:24.796Z,77.06
2018-02-13T11:41:52.325Z,76.82
2018-02-13T11:44:19.878Z,76.55
2018-02-13T11:46:47.460Z,76.68
2018-02-13T11:49:15.043Z,75.83
2018-02-13T11:51:42.589Z,76.09
2018-02-13T11:54:11.767Z,76.05
2018-02-13T11:56:39.327Z,75.74
2018-02-13T11:59:06.848Z,76.14
2018-02-13T12:01:34.411Z,75.72
2018-02-13T12:04:01.940Z,75.14
2018-02-13T12:06:29.505Z,74.79
2018-02-13T12:08:57.020Z,74.55
2018-02-13T12:11:24.551Z,75.25
2018-02-13T12:13:52.876Z,74.32
2018-02-13T12:16:20.384Z,74.59
2018-02-13T12:18:47.900Z,74.29
2018-02-13T12:21:15.960Z,74.11
2018-02-13T12:23:43.475Z,73.83
2018-02-13T12:26:11.983Z,73.29
2018-02-13T12:28:39.554Z,73.67
2018-02-13T12:31:07.060Z,73.37
2018-02-13T12:33:34.629Z,72.88
2018-02-13T12:36:02.220Z,72.77
2018-02-13T12:38:29.732Z,73.01
2018-02-13T12:40:57.282Z,72.19
2018-02-13T12:43:24.868Z,72.36
2018-02-13T12:45:52.385Z,71.91
2018-02-13T12:48:19.920Z,70.67
2018-02-13T12:50:47.866Z,70.85
2018-02-13T12:53:16.320Z,69.90
2018-02-13T12:55:43.846Z,69.88
2018-02-13T12:58:11.415Z,69.96
2018-02-13T13:00:39.921Z,70.29
2018-02-13T13:03:07.441Z,69.71
2018-02-13T13:05:34.981Z,70.41
2018-02-13T13:08:02.564Z,69.24
2018-02-13T13:10:30.118Z,68.87
2018-02-13T13:12:57.631Z,67.83
2018-02-13T13:15:25.200Z,67.41
2018-02-13T13:17:52.734Z,67.35
2018-02-13T13:20:20.266Z,67.69
2018-02-13T13:22:47.861Z,67.15
2018-02-13T13:25:16.463Z,67.43
2018-02-13T13:27:44.010Z,66.72
2018-02-13T13:30:11.694Z,65.87
2018-02-13T13:32:39.221Z,65.11
2018-02-13T13:35:06.771Z,65.14
2018-02-13T13:37:34.376Z,64.30
2018-02-13T13:40:01.938Z,65.91
2018-02-13T13:42:29.586Z,67.06
2018-02-13T13:44:57.159Z,67.02
2018-02-13T13:47:25.678Z,65.64
2018-02-13T13:49:53.216Z,66.57
2018-02-13T13:52:20.756Z,65.63
2018-02-13T13:54:48.321Z,63.74
2018-02-13T13:57:15.844Z,64.07
2018-02-13T13:59:43.418Z,63.92
2018-02-13T14:02:10.943Z,63.91
2018-02-13T14:04:38.451Z,63.07
2018-02-13T14:07:06.067Z,63.39
2018-02-13T14:09:33.594Z,64.36
2018-02-13T14:12:01.165Z,64.01
2018-02-13T14:14:28.752Z,63.40
2018-02-13T14:16:58.182Z,63.89
2018-02-13T14:19:26.202Z,64.48
2018-02-13T14:21:53.724Z,65.42
2018-02-13T14:24:21.259Z,65.30
2018-02-13T14:26:48.896Z,65.72
2018-02-13T14:29:16.424Z,65.98
2018-02-13T14:31:43.980Z,66.84
2018-02-13T14:34:11.941Z,65.54
2018-02-13T14:36:39.514Z,64.74
2018-02-13T14:39:07.040Z,64.37
2018-02-13T14:41:34.598Z,63.80
2018-02-13T14:44:02.124Z,63.85
2018-02-13T14:46:29.683Z,63.84
2018-02-13T14:48:57.215Z,63.61
2018-02-13T14:51:24.815Z,64.06
2018-02-13T14:53:52.361Z,64.60
2018-02-13T14:56:19.912Z,63.88
2018-02-13T14:58:48.499Z,63.55
2018-02-13T15:01:17.772Z,62.61
2018-02-13T15:03:45.344Z,63.83
2018-02-13T15:06:12.891Z,63.44
2018-02-13T15:08:40.409Z,63.25
2018-02-13T15:11:08.372Z,63.67
2018-02-13T15:13:35.901Z,65.05
2018-02-13T15:16:03.440Z,63.60
2018-02-13T15:18:31.017Z,64.47
2018-02-13T15:20:58.551Z,64.46
2018-02-13T15:23:26.130Z,64.40
2018-02-13T15:25:53.663Z,64.24
2018-02-13T15:28:21.190Z,64.69
2018-02-13T15:30:48.777Z,64.85
2018-02-13T15:33:16.319Z,65.14
2018-02-13T15:35:43.850Z,63.53
2018-02-13T15:38:11.779Z,63.33
2018-02-13T15:40:39.328Z,63.45
2018-02-13T15:43:06.861Z,64.12
2018-02-13T15:45:34.442Z,64.38
2018-02-13T15:48:01.983Z,65.14
2018-02-13T15:50:29.537Z,65.68
2018-02-13T15:52:57.654Z,66.16
2018-02-13T15:55:25.291Z,66.32
2018-02-13T15:57:52.803Z,66.59
2018-02-13T16:00:20.363Z,67.16
2018-02-13T16:02:47.894Z,66.14
2018-02-13T16:05:15.483Z,66.55
2018-02-13T16:07:43.009Z,66.52
2018-02-13T16:10:10.533Z,67.92
2018-02-13T16:12:38.076Z,67.22
2018-02-13T16:15:05.634Z,67.74
2018-02-13T16:17:33.186Z,68.15
2018-02-13T16:20:00.744Z,68.70
2018-02-13T16:22:28.267Z,68.71
2018-02-13T16:24:56.299Z,69.69
2018-02-13T16:27:23.830Z,69.65
2018-02-13T16:29:51.414Z,70.66
2018-02-13T16:32:18.988Z,71.77
2018-02-13T16:34:46.509Z,72.05
2018-02-13T16:37:14.032Z,71.74
2018-02-13T16:39:41.564Z,71.51
2018-02-13T16:42:09.113Z,71.29
2018-02-13T16:44:36.645Z,71.46
2018-02-13T16:47:04.217Z,72.52
2018-02-13T16:49:31.772Z,72.13
2018-02-13T16:51:59.314Z,72.43
2018-02-13T16:54:26.914Z,72.97
2018-02-13T16:56:54.498Z,72.62
2018-02-13T16:59:22.037Z,72.77
2018-02-13T17:01:49.599Z,73.19
2018-02-13T17:04:17.215Z,73.52
2018-02-13T17:06:44.752Z,73.15
2018-02-13T17:09:12.323Z,73.25
2018-02-13T17:11:39.880Z,74.14
2018-02-13T17:14:07.412Z,74.59
2018-02-13T17:16:34.928Z,74.39
2018-02-13T17:19:02.537Z,73.58
2018-02-13T17:21:30.051Z,75.01
2018-02-13T17:23:57.630Z,75.35
2018-02-13T17:26:25.158Z,75.74
2018-02-13T17:28:52.743Z,74.95
2018-02-13T17:31:20.330Z,74.66
2018-02-13T17:33:47.996Z,74.38
2018-02-13T17:36:15.660Z,75.45
2018-02-13T17:38:43.179Z,75.32
2018-02-13T17:41:10.750Z,75.98
2018-02-13T17:43:39.153Z,76.21
2018-02-13T17:46:06.680Z,75.01
2018-02-13T17:48:34.386Z,76.52
2018-02-13T17:51:02.392Z,76.24
2018-02-13T17:53:29.911Z,76.35
2018-02-13T17:55:57.449Z,77.20
2018-02-13T17:58:25.011Z,76.96
2018-02-13T18:00:52.532Z,76.43
2018-02-13T18:03:20.070Z,77.67
2018-02-13T18:05:47.583Z,78.64
2018-02-13T18:08:15.173Z,77.42
2018-02-13T18:10:42.718Z,78.34
2018-02-13T18:13:10.270Z,78.10
2018-02-13T18:15:37.836Z,77.98
2018-02-13T18:18:05.401Z,78.36
2018-02-13T18:20:32.953Z,78.21
2018-02-13T18:23:00.464Z,77.80
2018-02-13T18:25:28.028Z,77.23
2018-02-13T18:27:55.640Z,77.29
2018-02-13T18:30:23.176Z,77.73
2018-02-13T18:32:50.706Z,77.86
2018-02-13T18:35:18.292Z,77.90
2018-02-13T18:37:45.841Z,77.53
2018-02-13T18:40:13.384Z,78.14
2018-02-13T18:42:40.947Z,77.68
2018-02-13T18:45:08.464Z,77.81
2018-02-13T18:47:36.040Z,77.79
2018-02-13T18:50:03.552Z,77.31
2018-02-13T18:54:58.619Z,77.07
2018-02-13T18:57:26.157Z,78.03
2018-02-13T18:59:54.927Z,77.74
2018-02-13T19:02:22.690Z,77.87
2018-02-13T19:04:50.583Z,78.47
2018-02-13T19:07:18.323Z,78.60
2018-02-13T19:09:46.021Z,78.33
2018-02-13T19:12:13.798Z,77.93
2018-02-13T19:14:41.388Z,79.16
2018-02-13T19:19:36.456Z,78.30
2018-02-13T19:22:04.416Z,78.64
2018-02-13T19:24:32.001Z,78.69
2018-02-13T19:26:59.611Z,78.29
2018-02-13T19:29:27.200Z,78.40
2018-02-13T19:31:54.998Z,78.38
2018-02-13T19:34:23.014Z,77.76
2018-02-13T19:36:50.756Z,78.86
2018-02-13T19:39:18.338Z,78.71
2018-02-13T19:41:46.090Z,78.13
2018-02-13T19:44:13.761Z,78.66
2018-02-13T19:46:41.352Z,78.14
2018-02-13T19:49:10.259Z,78.64
2018-02-13T19:51:38.108Z,79.38
2018-02-13T19:54:05.697Z,80.49
2018-02-13T19:56:33.238Z,81.05
2018-02-13T19:59:00.802Z,81.07
2018-02-13T20:01:28.422Z,80.31
2018-02-13T20:03:56.620Z,80.14
2018-02-13T20:06:24.396Z,79.97
2018-02-13T20:08:51.989Z,80.09
2018-02-13T20:11:19.647Z,80.02
2018-02-13T20:13:47.422Z,79.65
2018-02-13T20:16:15.098Z,79.59
2018-02-13T20:18:42.687Z,79.41
2018-02-13T20:21:10.401Z,79.77
2018-02-13T20:23:38.466Z,80.24
2018-02-13T20:26:06.025Z,80.92
2018-02-13T20:28:33.600Z,81.80
2018-02-13T20:31:01.458Z,81.88
2018-02-13T20:33:29.237Z,81.38
2018-02-13T20:35:56.913Z,81.84
2018-02-13T20:38:24.447Z,81.94
2018-02-13T20:40:52.265Z,81.57
2018-02-13T20:43:20.732Z,80.76
2018-02-13T20:45:48.286Z,81.74
2018-02-13T20:48:15.887Z,81.07
2018-02-13T20:50:43.466Z,81.80
2018-02-13T20:53:11.020Z,80.63
2018-02-13T20:55:38.949Z,81.31
2018-02-13T20:58:06.487Z,81.22
2018-02-13T21:00:34.038Z,81.92
2018-02-13T21:03:02.109Z,80.77
2018-02-13T21:05:29.655Z,80.96
2018-02-13T21:07:57.217Z,81.32
2018-02-13T21:10:24.767Z,81.82
2018-02-13T21:12:52.324Z,82.00
2018-02-13T21:15:19.862Z,82.19
2018-02-13T21:17:47.399Z,82.25
2018-02-13T21:20:14.951Z,82.65
2018-02-13T21:22:42.498Z,83.26
2018-02-13T21:25:10.059Z,83.01
2018-02-13T21:27:37.620Z,82.38
2018-02-13T21:30:05.195Z,82.44
2018-02-13T21:32:32.819Z,81.92
2018-02-13T21:35:00.357Z,82.57
2018-02-13T21:37:27.880Z,81.37
2018-02-13T21:39:55.439Z,82.65
2018-02-13T21:42:23.311Z,81.85
2018-02-13T21:44:50.863Z,82.33
2018-02-13T21:47:18.431Z,82.82
2018-02-13T21:49:46.001Z,83.66
2018-02-13T21:52:13.538Z,83.38
2018-02-13T21:54:41.078Z,83.83
2018-02-13T21:57:08.621Z,84.22
2018-02-13T21:59:36.977Z,83.44
2018-02-13T22:02:04.502Z,84.61
2018-02-13T22:04:32.024Z,85.08
2018-02-13T22:06:59.582Z,84.45
2018-02-13T22:09:27.120Z,84.41
2018-02-13T22:11:54.639Z,85.08
2018-02-13T22:14:23.156Z,84.92
2018-02-13T22:16:50.675Z,85.97
2018-02-13T22:19:18.223Z,86.60
2018-02-13T22:21:45.845Z,86.33
2018-02-13T22:24:13.350Z,86.65
2018-02-13T22:26:40.868Z,87.57
2018-02-13T22:29:08.431Z,87.76
2018-02-13T22:31:35.942Z,86.83
2018-02-13T22:34:03.545Z,87.29
2018-02-13T22:36:31.105Z,87.53
2018-02-13T22:38:58.670Z,88.16
2018-02-13T22:41:26.255Z,87.61
2018-02-13T22:43:53.887Z,87.44
2018-02-13T22:46:21.461Z,87.83
2018-02-13T22:48:49.027Z,87.69
2018-02-13T22:51:16.599Z,86.70
2018-02-13T22:53:44.128Z,87.06
2018-02-13T22:56:14.203Z,87.82
2018-02-13T22:58:41.818Z,87.88
2018-02-13T23:01:09.523Z,87.25
2018-02-13T23:03:37.160Z,86.77
2018-02-13T23:06:04.772Z,87.81
2018-02-13T23:08:32.338Z,87.42
2018-02-13T23:10:59.901Z,87.67
2018-02-13T23:13:27.475Z,88.35
2018-02-13T23:15:55.055Z,87.84
2018-02-13T23:18:22.567Z,86.86
2018-02-13T23:20:50.109Z,87.77
2018-02-13T23:23:17.669Z,87.62
2018-02-13T23:25:45.239Z,87.48
2018-02-13T23:28:12.758Z,87.79
2018-02-13T23:30:40.327Z,87.85
2018-02-13T23:33:07.861Z,87.40
2018-02-13T23:35:35.398Z,88.65
2018-02-13T23:38:02.956Z,88.45
2018-02-13T23:40:30.489Z,88.48
2018-02-13T23:42:58.045Z,88.67
2018-02-13T23:45:25.600Z,89.16
2018-02-13T23:47:53.174Z,88.42
2018-02-13T23:50:20.846Z,88.46
2018-02-13T23:52:48.410Z,88.92
2018-02-13T23:55:15.954Z,88.81
2018-02-13T23:57:43.500Z,89.15
